sensor_id;sensor_type;location;lat;lon;timestamp;temperature;humidity
20977;DHT22;10647;51.016;3.720;2022-09-30T00:00:25;10.10;99.90
20977;DHT22;10647;51.016;3.720;2022-09-30T00:02:56;10.10;99.90
20977;DHT22;10647;51.016;3.720;2022-09-30T00:05:27;10.10;99.90
20977;DHT22;10647;51.016;3.720;2022-09-30T00:10:38;10.10;99.90
20977;DHT22;10647;51.016;3.720;2022-09-30T00:13:05;10.10;99.90
20977;DHT22;10647;51.016;3.720;2022-09-30T00:15:45;10.00;99.90
20977;DHT22;10647;51.016;3.720;2022-09-30T00:18:27;10.00;99.90
20977;DHT22;10647;51.016;3.720;2022-09-30T00:20:58;10.00;99.90
20977;DHT22;10647;51.016;3.720;2022-09-30T00:23:31;10.00;99.90
20977;DHT22;10647;51.016;3.720;2022-09-30T00:26:05;10.00;99.90
20977;DHT22;10647;51.016;3.720;2022-09-30T00:28:36;10.00;99.90
20977;DHT22;10647;51.016;3.720;2022-09-30T00:31:06;9.90;99.90
20977;DHT22;10647;51.016;3.720;2022-09-30T00:33:35;10.00;99.90
20977;DHT22;10647;51.016;3.720;2022-09-30T00:36:04;10.00;99.90
20977;DHT22;10647;51.016;3.720;2022-09-30T00:38:37;10.00;99.90
20977;DHT22;10647;51.016;3.720;2022-09-30T00:41:11;10.00;99.90
20977;DHT22;10647;51.016;3.720;2022-09-30T00:43:58;9.90;99.90
20977;DHT22;10647;51.016;3.720;2022-09-30T00:46:39;10.00;99.90
20977;DHT22;10647;51.016;3.720;2022-09-30T00:49:17;9.90;99.90
20977;DHT22;10647;51.016;3.720;2022-09-30T00:54:35;9.90;99.90
20977;DHT22;10647;51.016;3.720;2022-09-30T00:59:55;9.80;99.90
20977;DHT22;10647;51.016;3.720;2022-09-30T01:02:22;9.80;99.90
20977;DHT22;10647;51.016;3.720;2022-09-30T01:04:53;9.80;99.90
20977;DHT22;10647;51.016;3.720;2022-09-30T01:07:22;9.80;99.90
20977;DHT22;10647;51.016;3.720;2022-09-30T01:09:51;9.80;99.90
20977;DHT22;10647;51.016;3.720;2022-09-30T01:12:22;9.80;99.90
20977;DHT22;10647;51.016;3.720;2022-09-30T01:14:58;9.80;99.90
20977;DHT22;10647;51.016;3.720;2022-09-30T01:20:52;9.80;99.90
20977;DHT22;10647;51.016;3.720;2022-09-30T01:24:06;9.70;99.90
20977;DHT22;10647;51.016;3.720;2022-09-30T01:58:34;9.40;99.90
20977;DHT22;10647;51.016;3.720;2022-09-30T02:03:59;9.30;99.90
20977;DHT22;10647;51.016;3.720;2022-09-30T02:06:49;9.40;99.90
20977;DHT22;10647;51.016;3.720;2022-09-30T02:09:38;9.40;99.90
20977;DHT22;10647;51.016;3.720;2022-09-30T02:12:06;9.30;99.90
20977;DHT22;10647;51.016;3.720;2022-09-30T02:14:48;9.30;99.90
20977;DHT22;10647;51.016;3.720;2022-09-30T02:17:31;9.30;99.90
20977;DHT22;10647;51.016;3.720;2022-09-30T02:20:08;9.30;99.90
20977;DHT22;10647;51.016;3.720;2022-09-30T02:22:51;9.30;99.90
20977;DHT22;10647;51.016;3.720;2022-09-30T02:25:40;9.30;99.90
20977;DHT22;10647;51.016;3.720;2022-09-30T02:31:05;9.30;99.90
20977;DHT22;10647;51.016;3.720;2022-09-30T02:33:48;9.20;99.90
20977;DHT22;10647;51.016;3.720;2022-09-30T02:36:39;9.30;99.90
20977;DHT22;10647;51.016;3.720;2022-09-30T02:42:21;9.20;99.90
20977;DHT22;10647;51.016;3.720;2022-09-30T02:44:59;9.20;99.90
20977;DHT22;10647;51.016;3.720;2022-09-30T02:59:04;9.10;99.90
20977;DHT22;10647;51.016;3.720;2022-09-30T03:01:31;9.10;99.90
20977;DHT22;10647;51.016;3.720;2022-09-30T03:04:04;9.10;99.90
20977;DHT22;10647;51.016;3.720;2022-09-30T03:06:38;9.10;99.90
20977;DHT22;10647;51.016;3.720;2022-09-30T03:09:08;9.10;99.90
20977;DHT22;10647;51.016;3.720;2022-09-30T03:11:39;9.10;99.90
20977;DHT22;10647;51.016;3.720;2022-09-30T03:17:28;9.20;99.90
20977;DHT22;10647;51.016;3.720;2022-09-30T03:20:35;9.10;99.90
20977;DHT22;10647;51.016;3.720;2022-09-30T03:29:11;9.00;99.90
20977;DHT22;10647;51.016;3.720;2022-09-30T03:32:00;9.00;99.90
20977;DHT22;10647;51.016;3.720;2022-09-30T03:34:35;8.90;99.90
20977;DHT22;10647;51.016;3.720;2022-09-30T03:40:12;8.90;99.90
20977;DHT22;10647;51.016;3.720;2022-09-30T03:42:45;8.90;99.90
20977;DHT22;10647;51.016;3.720;2022-09-30T03:45:40;8.90;99.90
20977;DHT22;10647;51.016;3.720;2022-09-30T03:48:11;9.00;99.90
20977;DHT22;10647;51.016;3.720;2022-09-30T03:50:40;8.90;99.90
20977;DHT22;10647;51.016;3.720;2022-09-30T03:53:10;9.00;99.90
20977;DHT22;10647;51.016;3.720;2022-09-30T03:55:46;9.00;99.90
20977;DHT22;10647;51.016;3.720;2022-09-30T03:58:19;9.00;99.90
20977;DHT22;10647;51.016;3.720;2022-09-30T04:00:54;9.00;99.90
20977;DHT22;10647;51.016;3.720;2022-09-30T04:03:25;9.00;99.90
20977;DHT22;10647;51.016;3.720;2022-09-30T04:05:59;9.00;99.90
20977;DHT22;10647;51.016;3.720;2022-09-30T04:08:27;9.00;99.90
20977;DHT22;10647;51.016;3.720;2022-09-30T04:11:00;8.90;99.90
20977;DHT22;10647;51.016;3.720;2022-09-30T04:13:28;9.00;99.90
20977;DHT22;10647;51.016;3.720;2022-09-30T04:15:59;9.00;99.90
20977;DHT22;10647;51.016;3.720;2022-09-30T04:18:26;9.00;99.90
20977;DHT22;10647;51.016;3.720;2022-09-30T04:23:50;9.00;99.90
20977;DHT22;10647;51.016;3.720;2022-09-30T04:26:18;9.00;99.90
20977;DHT22;10647;51.016;3.720;2022-09-30T04:28:52;9.00;99.90
20977;DHT22;10647;51.016;3.720;2022-09-30T04:31:24;8.90;99.90
20977;DHT22;10647;51.016;3.720;2022-09-30T04:34:03;9.00;99.90
20977;DHT22;10647;51.016;3.720;2022-09-30T04:36:31;9.00;99.90
20977;DHT22;10647;51.016;3.720;2022-09-30T04:38:58;9.00;99.90
20977;DHT22;10647;51.016;3.720;2022-09-30T04:41:29;9.00;99.90
20977;DHT22;10647;51.016;3.720;2022-09-30T04:44:01;9.00;99.90
20977;DHT22;10647;51.016;3.720;2022-09-30T04:46:34;9.00;99.90
20977;DHT22;10647;51.016;3.720;2022-09-30T04:49:04;9.00;99.90
20977;DHT22;10647;51.016;3.720;2022-09-30T04:51:35;9.00;99.90
20977;DHT22;10647;51.016;3.720;2022-09-30T04:54:03;9.00;99.90
20977;DHT22;10647;51.016;3.720;2022-09-30T04:56:37;9.00;99.90
20977;DHT22;10647;51.016;3.720;2022-09-30T04:59:04;9.00;99.90
20977;DHT22;10647;51.016;3.720;2022-09-30T05:01:40;9.00;99.90
20977;DHT22;10647;51.016;3.720;2022-09-30T05:04:25;9.10;99.90
20977;DHT22;10647;51.016;3.720;2022-09-30T05:06:52;9.00;99.90
20977;DHT22;10647;51.016;3.720;2022-09-30T05:09:21;9.10;99.90
20977;DHT22;10647;51.016;3.720;2022-09-30T05:11:49;9.10;99.90
20977;DHT22;10647;51.016;3.720;2022-09-30T05:14:19;9.10;99.90
20977;DHT22;10647;51.016;3.720;2022-09-30T05:16:47;9.10;99.90
20977;DHT22;10647;51.016;3.720;2022-09-30T05:19:20;9.10;99.90
20977;DHT22;10647;51.016;3.720;2022-09-30T05:21:48;9.10;99.90
20977;DHT22;10647;51.016;3.720;2022-09-30T05:24:16;9.10;99.90
20977;DHT22;10647;51.016;3.720;2022-09-30T05:26:43;9.20;99.90
20977;DHT22;10647;51.016;3.720;2022-09-30T05:29:11;9.40;99.90
20977;DHT22;10647;51.016;3.720;2022-09-30T05:31:38;9.50;99.90
20977;DHT22;10647;51.016;3.720;2022-09-30T05:34:07;9.60;99.90
20977;DHT22;10647;51.016;3.720;2022-09-30T05:36:37;9.60;99.90
20977;DHT22;10647;51.016;3.720;2022-09-30T05:39:05;9.70;99.90
20977;DHT22;10647;51.016;3.720;2022-09-30T05:41:33;9.70;99.90
20977;DHT22;10647;51.016;3.720;2022-09-30T05:44:00;9.70;99.90
20977;DHT22;10647;51.016;3.720;2022-09-30T05:46:28;9.60;99.90
20977;DHT22;10647;51.016;3.720;2022-09-30T05:48:55;9.60;99.90
20977;DHT22;10647;51.016;3.720;2022-09-30T05:51:25;9.60;99.90
20977;DHT22;10647;51.016;3.720;2022-09-30T05:53:53;9.50;99.90
20977;DHT22;10647;51.016;3.720;2022-09-30T05:56:21;9.50;99.90
20977;DHT22;10647;51.016;3.720;2022-09-30T05:58:49;9.50;99.90
20977;DHT22;10647;51.016;3.720;2022-09-30T06:01:16;9.50;99.90
20977;DHT22;10647;51.016;3.720;2022-09-30T06:03:45;9.50;99.90
20977;DHT22;10647;51.016;3.720;2022-09-30T06:06:14;9.60;99.90
20977;DHT22;10647;51.016;3.720;2022-09-30T06:08:42;9.60;99.90
20977;DHT22;10647;51.016;3.720;2022-09-30T06:11:15;9.70;99.90
20977;DHT22;10647;51.016;3.720;2022-09-30T06:13:44;9.70;99.90
20977;DHT22;10647;51.016;3.720;2022-09-30T06:16:13;9.70;99.90
20977;DHT22;10647;51.016;3.720;2022-09-30T06:18:41;9.70;99.90
20977;DHT22;10647;51.016;3.720;2022-09-30T06:21:11;9.80;99.90
20977;DHT22;10647;51.016;3.720;2022-09-30T06:23:47;9.80;99.90
20977;DHT22;10647;51.016;3.720;2022-09-30T06:26:20;9.80;99.90
20977;DHT22;10647;51.016;3.720;2022-09-30T06:28:53;9.80;99.90
20977;DHT22;10647;51.016;3.720;2022-09-30T06:31:21;9.80;99.90
20977;DHT22;10647;51.016;3.720;2022-09-30T06:33:52;9.90;99.90
20977;DHT22;10647;51.016;3.720;2022-09-30T06:36:20;9.90;99.90
20977;DHT22;10647;51.016;3.720;2022-09-30T06:38:50;9.90;99.90
20977;DHT22;10647;51.016;3.720;2022-09-30T06:41:25;10.00;99.90
20977;DHT22;10647;51.016;3.720;2022-09-30T06:43:56;10.10;99.90
20977;DHT22;10647;51.016;3.720;2022-09-30T06:46:29;10.10;99.90
20977;DHT22;10647;51.016;3.720;2022-09-30T06:49:16;10.20;99.90
20977;DHT22;10647;51.016;3.720;2022-09-30T06:51:49;10.20;99.90
20977;DHT22;10647;51.016;3.720;2022-09-30T06:54:17;10.30;99.90
20977;DHT22;10647;51.016;3.720;2022-09-30T06:57:04;10.40;99.90
20977;DHT22;10647;51.016;3.720;2022-09-30T06:59:31;10.50;99.90
20977;DHT22;10647;51.016;3.720;2022-09-30T07:01:59;10.50;99.90
20977;DHT22;10647;51.016;3.720;2022-09-30T07:04:26;10.60;99.90
20977;DHT22;10647;51.016;3.720;2022-09-30T07:07:00;10.70;99.90
20977;DHT22;10647;51.016;3.720;2022-09-30T07:09:28;10.70;99.90
20977;DHT22;10647;51.016;3.720;2022-09-30T07:12:01;10.80;99.90
20977;DHT22;10647;51.016;3.720;2022-09-30T07:14:31;10.90;99.90
20977;DHT22;10647;51.016;3.720;2022-09-30T07:16:59;11.00;99.90
20977;DHT22;10647;51.016;3.720;2022-09-30T07:19:39;11.10;99.90
20977;DHT22;10647;51.016;3.720;2022-09-30T07:22:06;11.10;99.90
20977;DHT22;10647;51.016;3.720;2022-09-30T07:25:03;11.20;99.90
20977;DHT22;10647;51.016;3.720;2022-09-30T07:27:32;11.30;99.90
20977;DHT22;10647;51.016;3.720;2022-09-30T07:29:59;11.30;99.90
20977;DHT22;10647;51.016;3.720;2022-09-30T07:32:30;11.40;99.90
20977;DHT22;10647;51.016;3.720;2022-09-30T07:34:59;11.60;99.90
20977;DHT22;10647;51.016;3.720;2022-09-30T07:37:33;11.70;99.90
20977;DHT22;10647;51.016;3.720;2022-09-30T07:40:05;11.80;99.90
20977;DHT22;10647;51.016;3.720;2022-09-30T07:42:36;11.90;99.90
20977;DHT22;10647;51.016;3.720;2022-09-30T07:45:05;12.00;99.90
20977;DHT22;10647;51.016;3.720;2022-09-30T07:47:33;12.10;99.90
20977;DHT22;10647;51.016;3.720;2022-09-30T07:50:01;12.20;99.90
20977;DHT22;10647;51.016;3.720;2022-09-30T07:52:29;12.30;99.90
20977;DHT22;10647;51.016;3.720;2022-09-30T07:54:56;12.40;99.90
20977;DHT22;10647;51.016;3.720;2022-09-30T07:57:24;12.50;99.90
20977;DHT22;10647;51.016;3.720;2022-09-30T07:59:51;12.60;99.90
20977;DHT22;10647;51.016;3.720;2022-09-30T08:02:19;12.70;99.90
20977;DHT22;10647;51.016;3.720;2022-09-30T08:04:47;12.70;99.90
20977;DHT22;10647;51.016;3.720;2022-09-30T08:07:16;12.80;99.90
20977;DHT22;10647;51.016;3.720;2022-09-30T08:09:47;12.90;99.90
20977;DHT22;10647;51.016;3.720;2022-09-30T08:12:18;13.00;99.90
20977;DHT22;10647;51.016;3.720;2022-09-30T08:14:47;13.10;99.90
20977;DHT22;10647;51.016;3.720;2022-09-30T08:17:15;13.20;99.90
20977;DHT22;10647;51.016;3.720;2022-09-30T08:19:43;13.20;99.90
20977;DHT22;10647;51.016;3.720;2022-09-30T08:22:11;13.30;99.90
20977;DHT22;10647;51.016;3.720;2022-09-30T08:24:39;13.40;99.90
20977;DHT22;10647;51.016;3.720;2022-09-30T08:27:08;13.50;99.90
20977;DHT22;10647;51.016;3.720;2022-09-30T08:29:35;13.60;99.90
20977;DHT22;10647;51.016;3.720;2022-09-30T08:32:08;13.60;99.90
20977;DHT22;10647;51.016;3.720;2022-09-30T08:34:36;13.70;99.90
20977;DHT22;10647;51.016;3.720;2022-09-30T08:37:04;13.80;99.90
20977;DHT22;10647;51.016;3.720;2022-09-30T08:39:37;13.90;99.90
20977;DHT22;10647;51.016;3.720;2022-09-30T08:45:03;14.10;99.90
20977;DHT22;10647;51.016;3.720;2022-09-30T08:47:52;14.20;99.90
20977;DHT22;10647;51.016;3.720;2022-09-30T08:52:51;14.30;99.90
20977;DHT22;10647;51.016;3.720;2022-09-30T08:55:25;14.40;99.90
20977;DHT22;10647;51.016;3.720;2022-09-30T08:57:54;14.50;99.90
20977;DHT22;10647;51.016;3.720;2022-09-30T09:00:25;14.70;99.90
20977;DHT22;10647;51.016;3.720;2022-09-30T09:02:56;14.80;99.90
20977;DHT22;10647;51.016;3.720;2022-09-30T09:11:45;15.00;99.90
20977;DHT22;10647;51.016;3.720;2022-09-30T09:14:31;15.00;99.90
20977;DHT22;10647;51.016;3.720;2022-09-30T09:17:13;15.10;99.90
20977;DHT22;10647;51.016;3.720;2022-09-30T09:19:50;15.10;99.90
20977;DHT22;10647;51.016;3.720;2022-09-30T09:22:14;15.30;99.90
20977;DHT22;10647;51.016;3.720;2022-09-30T09:24:49;15.40;99.90
20977;DHT22;10647;51.016;3.720;2022-09-30T09:30:09;15.60;99.90
20977;DHT22;10647;51.016;3.720;2022-09-30T09:32:38;15.70;99.90
20977;DHT22;10647;51.016;3.720;2022-09-30T09:35:23;15.80;99.90
20977;DHT22;10647;51.016;3.720;2022-09-30T09:38:00;15.90;99.90
20977;DHT22;10647;51.016;3.720;2022-09-30T09:44:10;16.10;99.90
20977;DHT22;10647;51.016;3.720;2022-09-30T09:47:04;16.20;99.90
20977;DHT22;10647;51.016;3.720;2022-09-30T09:49:36;16.30;99.90
20977;DHT22;10647;51.016;3.720;2022-09-30T09:52:23;16.40;99.90
20977;DHT22;10647;51.016;3.720;2022-09-30T09:54:50;16.40;99.90
20977;DHT22;10647;51.016;3.720;2022-09-30T09:57:19;16.60;99.90
20977;DHT22;10647;51.016;3.720;2022-09-30T10:00:00;16.70;99.90
20977;DHT22;10647;51.016;3.720;2022-09-30T10:02:32;16.70;99.90
20977;DHT22;10647;51.016;3.720;2022-09-30T10:05:00;16.80;99.90
20977;DHT22;10647;51.016;3.720;2022-09-30T10:07:32;16.80;99.90
20977;DHT22;10647;51.016;3.720;2022-09-30T10:10:19;16.90;99.90
20977;DHT22;10647;51.016;3.720;2022-09-30T10:12:47;17.00;99.90
20977;DHT22;10647;51.016;3.720;2022-09-30T10:15:23;17.10;99.90
20977;DHT22;10647;51.016;3.720;2022-09-30T10:17:58;17.10;99.90
20977;DHT22;10647;51.016;3.720;2022-09-30T10:23:07;17.20;99.90
20977;DHT22;10647;51.016;3.720;2022-09-30T10:25:31;17.30;99.90
20977;DHT22;10647;51.016;3.720;2022-09-30T10:28:01;17.40;99.90
20977;DHT22;10647;51.016;3.720;2022-09-30T10:30:41;17.40;99.90
20977;DHT22;10647;51.016;3.720;2022-09-30T10:36:07;17.70;99.90
20977;DHT22;10647;51.016;3.720;2022-09-30T10:38:43;17.70;99.90
20977;DHT22;10647;51.016;3.720;2022-09-30T10:41:06;17.70;99.90
20977;DHT22;10647;51.016;3.720;2022-09-30T10:43:37;17.80;99.90
20977;DHT22;10647;51.016;3.720;2022-09-30T10:46:05;17.90;99.90
20977;DHT22;10647;51.016;3.720;2022-09-30T10:48:35;18.10;99.90
20977;DHT22;10647;51.016;3.720;2022-09-30T10:51:04;18.10;99.90
20977;DHT22;10647;51.016;3.720;2022-09-30T10:53:34;18.20;99.90
20977;DHT22;10647;51.016;3.720;2022-09-30T10:56:02;18.30;99.90
20977;DHT22;10647;51.016;3.720;2022-09-30T10:58:48;18.30;99.90
20977;DHT22;10647;51.016;3.720;2022-09-30T11:07:08;18.80;99.90
20977;DHT22;10647;51.016;3.720;2022-09-30T11:09:34;19.20;99.90
20977;DHT22;10647;51.016;3.720;2022-09-30T11:12:23;19.70;99.90
20977;DHT22;10647;51.016;3.720;2022-09-30T11:14:57;20.40;99.90
20977;DHT22;10647;51.016;3.720;2022-09-30T11:17:39;20.80;99.90
20977;DHT22;10647;51.016;3.720;2022-09-30T11:20:27;21.00;99.90
20977;DHT22;10647;51.016;3.720;2022-09-30T11:25:56;21.40;99.90
20977;DHT22;10647;51.016;3.720;2022-09-30T11:28:43;21.40;99.90
20977;DHT22;10647;51.016;3.720;2022-09-30T11:31:35;21.60;99.90
20977;DHT22;10647;51.016;3.720;2022-09-30T11:34:17;21.70;99.90
20977;DHT22;10647;51.016;3.720;2022-09-30T11:36:50;21.60;99.90
20977;DHT22;10647;51.016;3.720;2022-09-30T11:39:57;21.60;99.90
20977;DHT22;10647;51.016;3.720;2022-09-30T11:42:28;21.50;99.90
20977;DHT22;10647;51.016;3.720;2022-09-30T11:45:27;21.20;99.90
20977;DHT22;10647;51.016;3.720;2022-09-30T11:48:20;21.10;99.90
20977;DHT22;10647;51.016;3.720;2022-09-30T11:51:08;21.40;99.90
20977;DHT22;10647;51.016;3.720;2022-09-30T11:56:44;21.60;99.90
20977;DHT22;10647;51.016;3.720;2022-09-30T11:59:16;21.70;99.90
20977;DHT22;10647;51.016;3.720;2022-09-30T12:01:46;21.80;99.90
20977;DHT22;10647;51.016;3.720;2022-09-30T12:04:21;21.80;99.90
20977;DHT22;10647;51.016;3.720;2022-09-30T12:07:09;21.90;99.90
20977;DHT22;10647;51.016;3.720;2022-09-30T12:09:43;21.80;99.90
20977;DHT22;10647;51.016;3.720;2022-09-30T12:12:10;21.60;99.90
20977;DHT22;10647;51.016;3.720;2022-09-30T12:14:47;21.70;99.90
20977;DHT22;10647;51.016;3.720;2022-09-30T12:17:30;22.10;99.90
20977;DHT22;10647;51.016;3.720;2022-09-30T12:20:16;22.30;99.90
20977;DHT22;10647;51.016;3.720;2022-09-30T12:22:49;22.50;99.90
20977;DHT22;10647;51.016;3.720;2022-09-30T12:25:27;22.60;99.90
20977;DHT22;10647;51.016;3.720;2022-09-30T12:27:59;22.80;99.90
20977;DHT22;10647;51.016;3.720;2022-09-30T12:30:27;23.20;99.90
20977;DHT22;10647;51.016;3.720;2022-09-30T12:36:05;23.50;99.90
20977;DHT22;10647;51.016;3.720;2022-09-30T12:41:48;23.70;99.90
20977;DHT22;10647;51.016;3.720;2022-09-30T12:44:43;23.50;99.90
20977;DHT22;10647;51.016;3.720;2022-09-30T12:47:32;23.40;99.90
20977;DHT22;10647;51.016;3.720;2022-09-30T12:49:59;23.60;99.90
20977;DHT22;10647;51.016;3.720;2022-09-30T12:52:32;24.50;99.90
20977;DHT22;10647;51.016;3.720;2022-09-30T12:55:36;25.50;99.90
20977;DHT22;10647;51.016;3.720;2022-09-30T12:57:58;26.50;99.90
20977;DHT22;10647;51.016;3.720;2022-09-30T13:00:34;27.50;99.90
20977;DHT22;10647;51.016;3.720;2022-09-30T13:03:21;28.20;99.90
20977;DHT22;10647;51.016;3.720;2022-09-30T13:06:03;28.60;99.90
20977;DHT22;10647;51.016;3.720;2022-09-30T13:08:36;29.00;99.90
20977;DHT22;10647;51.016;3.720;2022-09-30T13:11:20;29.00;99.90
20977;DHT22;10647;51.016;3.720;2022-09-30T13:13:56;28.00;99.90
20977;DHT22;10647;51.016;3.720;2022-09-30T13:16:12;26.90;99.90
20977;DHT22;10647;51.016;3.720;2022-09-30T13:21:28;26.30;99.90
20977;DHT22;10647;51.016;3.720;2022-09-30T13:24:02;27.80;99.90
20977;DHT22;10647;51.016;3.720;2022-09-30T13:26:32;28.30;99.90
20977;DHT22;10647;51.016;3.720;2022-09-30T13:34:28;26.20;99.50
20977;DHT22;10647;51.016;3.720;2022-09-30T13:37:04;26.00;99.90
20977;DHT22;10647;51.016;3.720;2022-09-30T13:39:43;27.50;99.70
20977;DHT22;10647;51.016;3.720;2022-09-30T13:42:19;27.30;99.30
20977;DHT22;10647;51.016;3.720;2022-09-30T13:44:59;27.20;97.20
20977;DHT22;10647;51.016;3.720;2022-09-30T13:50:11;28.70;94.60
20977;DHT22;10647;51.016;3.720;2022-09-30T13:52:35;27.30;95.80
20977;DHT22;10647;51.016;3.720;2022-09-30T13:55:23;26.60;95.20
20977;DHT22;10647;51.016;3.720;2022-09-30T13:58:52;28.30;94.00
20977;DHT22;10647;51.016;3.720;2022-09-30T14:01:09;29.40;94.70
20977;DHT22;10647;51.016;3.720;2022-09-30T14:04:11;30.50;91.90
20977;DHT22;10647;51.016;3.720;2022-09-30T14:23:56;33.80;82.10
20977;DHT22;10647;51.016;3.720;2022-09-30T14:26:57;33.60;76.30
20977;DHT22;10647;51.016;3.720;2022-09-30T14:29:52;33.60;74.70
20977;DHT22;10647;51.016;3.720;2022-09-30T14:32:21;33.10;75.20
20977;DHT22;10647;51.016;3.720;2022-09-30T14:34:54;32.90;73.90
20977;DHT22;10647;51.016;3.720;2022-09-30T14:37:43;32.40;75.50
20977;DHT22;10647;51.016;3.720;2022-09-30T14:40:10;30.50;75.20
20977;DHT22;10647;51.016;3.720;2022-09-30T14:42:47;30.30;76.50
20977;DHT22;10647;51.016;3.720;2022-09-30T14:45:22;30.10;77.20
20977;DHT22;10647;51.016;3.720;2022-09-30T14:47:52;29.50;77.20
20977;DHT22;10647;51.016;3.720;2022-09-30T14:50:24;28.70;78.20
20977;DHT22;10647;51.016;3.720;2022-09-30T14:52:52;28.20;78.40
20977;DHT22;10647;51.016;3.720;2022-09-30T14:58:21;26.50;82.00
20977;DHT22;10647;51.016;3.720;2022-09-30T15:01:12;25.90;83.50
20977;DHT22;10647;51.016;3.720;2022-09-30T15:03:43;25.30;81.70
20977;DHT22;10647;51.016;3.720;2022-09-30T15:06:25;24.70;82.90
20977;DHT22;10647;51.016;3.720;2022-09-30T15:09:13;24.30;85.70
20977;DHT22;10647;51.016;3.720;2022-09-30T15:11:36;23.90;84.00
20977;DHT22;10647;51.016;3.720;2022-09-30T15:14:14;23.60;86.40
20977;DHT22;10647;51.016;3.720;2022-09-30T15:16:46;23.30;86.70
20977;DHT22;10647;51.016;3.720;2022-09-30T15:19:21;23.00;84.50
20977;DHT22;10647;51.016;3.720;2022-09-30T15:21:51;22.80;86.00
20977;DHT22;10647;51.016;3.720;2022-09-30T15:24:21;22.60;87.00
20977;DHT22;10647;51.016;3.720;2022-09-30T15:26:50;22.40;86.90
20977;DHT22;10647;51.016;3.720;2022-09-30T15:29:18;22.30;89.10
20977;DHT22;10647;51.016;3.720;2022-09-30T15:31:49;22.30;89.60
20977;DHT22;10647;51.016;3.720;2022-09-30T15:34:19;22.00;89.30
20977;DHT22;10647;51.016;3.720;2022-09-30T15:36:56;21.90;90.20
20977;DHT22;10647;51.016;3.720;2022-09-30T15:42:37;21.70;90.40
20977;DHT22;10647;51.016;3.720;2022-09-30T15:50:46;21.30;91.00
20977;DHT22;10647;51.016;3.720;2022-09-30T15:55:51;21.10;90.60
20977;DHT22;10647;51.016;3.720;2022-09-30T15:58:32;21.00;90.40
20977;DHT22;10647;51.016;3.720;2022-09-30T16:03:51;20.90;91.30
20977;DHT22;10647;51.016;3.720;2022-09-30T16:06:26;20.90;90.90
20977;DHT22;10647;51.016;3.720;2022-09-30T16:08:58;20.80;90.60
20977;DHT22;10647;51.016;3.720;2022-09-30T16:11:33;20.80;91.00
20977;DHT22;10647;51.016;3.720;2022-09-30T16:14:04;20.70;91.30
20977;DHT22;10647;51.016;3.720;2022-09-30T16:16:33;20.70;91.30
20977;DHT22;10647;51.016;3.720;2022-09-30T16:19:03;20.60;91.40
20977;DHT22;10647;51.016;3.720;2022-09-30T16:21:42;20.50;91.40
20977;DHT22;10647;51.016;3.720;2022-09-30T16:26:55;20.30;91.70
20977;DHT22;10647;51.016;3.720;2022-09-30T16:29:25;20.20;91.50
20977;DHT22;10647;51.016;3.720;2022-09-30T16:31:54;20.10;91.70
20977;DHT22;10647;51.016;3.720;2022-09-30T16:34:24;20.00;92.10
20977;DHT22;10647;51.016;3.720;2022-09-30T16:37:10;20.00;92.00
20977;DHT22;10647;51.016;3.720;2022-09-30T16:39:39;19.90;92.00
20977;DHT22;10647;51.016;3.720;2022-09-30T16:42:13;19.80;91.90
20977;DHT22;10647;51.016;3.720;2022-09-30T16:44:37;19.70;92.10
20977;DHT22;10647;51.016;3.720;2022-09-30T16:47:05;19.60;92.10
20977;DHT22;10647;51.016;3.720;2022-09-30T16:49:32;19.60;92.30
20977;DHT22;10647;51.016;3.720;2022-09-30T16:52:00;19.50;92.60
20977;DHT22;10647;51.016;3.720;2022-09-30T16:54:27;19.30;92.70
20977;DHT22;10647;51.016;3.720;2022-09-30T16:56:55;19.20;92.90
20977;DHT22;10647;51.016;3.720;2022-09-30T16:59:23;19.10;93.00
20977;DHT22;10647;51.016;3.720;2022-09-30T17:01:50;18.90;93.00
20977;DHT22;10647;51.016;3.720;2022-09-30T17:04:18;18.90;93.30
20977;DHT22;10647;51.016;3.720;2022-09-30T17:06:46;18.80;93.80
20977;DHT22;10647;51.016;3.720;2022-09-30T17:09:13;18.70;93.60
20977;DHT22;10647;51.016;3.720;2022-09-30T17:11:41;18.60;93.80
20977;DHT22;10647;51.016;3.720;2022-09-30T17:14:08;18.60;93.90
20977;DHT22;10647;51.016;3.720;2022-09-30T17:16:36;18.40;94.00
20977;DHT22;10647;51.016;3.720;2022-09-30T17:19:03;18.40;94.20
20977;DHT22;10647;51.016;3.720;2022-09-30T17:21:31;18.30;94.30
20977;DHT22;10647;51.016;3.720;2022-09-30T17:23:58;18.20;94.40
20977;DHT22;10647;51.016;3.720;2022-09-30T17:26:26;18.20;94.50
20977;DHT22;10647;51.016;3.720;2022-09-30T17:28:54;18.10;94.60
20977;DHT22;10647;51.016;3.720;2022-09-30T17:31:22;18.00;94.60
20977;DHT22;10647;51.016;3.720;2022-09-30T17:33:49;18.00;94.70
20977;DHT22;10647;51.016;3.720;2022-09-30T17:36:17;18.00;94.70
20977;DHT22;10647;51.016;3.720;2022-09-30T17:38:44;17.90;94.60
20977;DHT22;10647;51.016;3.720;2022-09-30T17:41:13;17.90;94.70
20977;DHT22;10647;51.016;3.720;2022-09-30T17:43:59;17.90;94.80
20977;DHT22;10647;51.016;3.720;2022-09-30T17:46:28;17.90;94.80
20977;DHT22;10647;51.016;3.720;2022-09-30T17:48:57;17.80;94.90
20977;DHT22;10647;51.016;3.720;2022-09-30T17:51:24;17.80;95.00
20977;DHT22;10647;51.016;3.720;2022-09-30T17:53:52;17.80;95.10
20977;DHT22;10647;51.016;3.720;2022-09-30T17:56:21;17.70;95.10
20977;DHT22;10647;51.016;3.720;2022-09-30T17:58:50;17.70;95.20
20977;DHT22;10647;51.016;3.720;2022-09-30T18:01:19;17.70;95.20
20977;DHT22;10647;51.016;3.720;2022-09-30T18:03:47;17.70;95.20
20977;DHT22;10647;51.016;3.720;2022-09-30T18:06:16;17.60;95.30
20977;DHT22;10647;51.016;3.720;2022-09-30T18:08:49;17.70;95.40
20977;DHT22;10647;51.016;3.720;2022-09-30T18:11:23;17.60;95.40
20977;DHT22;10647;51.016;3.720;2022-09-30T18:13:58;17.60;95.40
20977;DHT22;10647;51.016;3.720;2022-09-30T18:16:33;17.60;95.20
20977;DHT22;10647;51.016;3.720;2022-09-30T18:19:04;17.50;95.50
20977;DHT22;10647;51.016;3.720;2022-09-30T18:24:27;17.40;95.60
20977;DHT22;10647;51.016;3.720;2022-09-30T18:27:16;17.50;95.80
20977;DHT22;10647;51.016;3.720;2022-09-30T18:29:51;17.40;95.80
20977;DHT22;10647;51.016;3.720;2022-09-30T18:32:19;17.40;95.90
20977;DHT22;10647;51.016;3.720;2022-09-30T18:34:48;17.40;96.00
20977;DHT22;10647;51.016;3.720;2022-09-30T18:37:19;17.40;96.10
20977;DHT22;10647;51.016;3.720;2022-09-30T18:39:50;17.30;96.20
20977;DHT22;10647;51.016;3.720;2022-09-30T18:42:26;17.30;96.30
20977;DHT22;10647;51.016;3.720;2022-09-30T18:44:55;17.30;96.30
20977;DHT22;10647;51.016;3.720;2022-09-30T18:47:23;17.30;96.50
20977;DHT22;10647;51.016;3.720;2022-09-30T18:49:54;17.30;96.60
20977;DHT22;10647;51.016;3.720;2022-09-30T18:52:21;17.30;96.70
20977;DHT22;10647;51.016;3.720;2022-09-30T18:54:51;17.30;96.80
20977;DHT22;10647;51.016;3.720;2022-09-30T18:57:19;17.30;97.00
20977;DHT22;10647;51.016;3.720;2022-09-30T18:59:47;17.30;97.00
20977;DHT22;10647;51.016;3.720;2022-09-30T19:02:17;17.20;97.10
20977;DHT22;10647;51.016;3.720;2022-09-30T19:05:04;17.20;97.20